sensor_id;sensor_type;location;lat;lon;timestamp;temperature;humidity
1381;DHT22;684;48.342;10.096;2022-11-25T00:01:44;4.60;38.80
1381;DHT22;684;48.342;10.096;2022-11-25T00:04:11;4.60;38.90
1381;DHT22;684;48.342;10.096;2022-11-25T00:06:39;4.60;38.90
1381;DHT22;684;48.342;10.096;2022-11-25T00:09:08;4.50;38.80
1381;DHT22;684;48.342;10.096;2022-11-25T00:11:37;4.50;38.70
1381;DHT22;684;48.342;10.096;2022-11-25T00:14:05;4.40;38.50
1381;DHT22;684;48.342;10.096;2022-11-25T00:16:32;4.40;38.50
1381;DHT22;684;48.342;10.096;2022-11-25T00:18:59;4.40;38.50
1381;DHT22;684;48.342;10.096;2022-11-25T00:21:28;4.40;38.60
1381;DHT22;684;48.342;10.096;2022-11-25T00:23:57;4.40;38.80
1381;DHT22;684;48.342;10.096;2022-11-25T00:26:26;4.50;39.10
1381;DHT22;684;48.342;10.096;2022-11-25T00:28:53;4.40;38.90
1381;DHT22;684;48.342;10.096;2022-11-25T00:31:24;4.40;38.80
1381;DHT22;684;48.342;10.096;2022-11-25T00:33:51;4.40;38.70
1381;DHT22;684;48.342;10.096;2022-11-25T00:36:19;4.30;38.60
1381;DHT22;684;48.342;10.096;2022-11-25T00:38:51;4.30;38.50
1381;DHT22;684;48.342;10.096;2022-11-25T00:41:19;4.30;38.50
1381;DHT22;684;48.342;10.096;2022-11-25T00:44:03;4.30;38.40
1381;DHT22;684;48.342;10.096;2022-11-25T00:46:48;4.20;38.30
1381;DHT22;684;48.342;10.096;2022-11-25T00:49:15;4.20;38.20
1381;DHT22;684;48.342;10.096;2022-11-25T00:51:41;4.20;38.30
1381;DHT22;684;48.342;10.096;2022-11-25T00:54:08;4.20;38.20
1381;DHT22;684;48.342;10.096;2022-11-25T00:56:36;4.20;38.10
1381;DHT22;684;48.342;10.096;2022-11-25T00:59:03;4.20;38.10
1381;DHT22;684;48.342;10.096;2022-11-25T01:01:30;4.20;38.10
1381;DHT22;684;48.342;10.096;2022-11-25T01:03:57;4.20;38.00
1381;DHT22;684;48.342;10.096;2022-11-25T01:06:24;4.20;38.00
1381;DHT22;684;48.342;10.096;2022-11-25T01:08:51;4.20;37.90
1381;DHT22;684;48.342;10.096;2022-11-25T01:11:20;4.20;37.90
1381;DHT22;684;48.342;10.096;2022-11-25T01:13:48;4.20;38.00
1381;DHT22;684;48.342;10.096;2022-11-25T01:16:16;4.20;38.10
1381;DHT22;684;48.342;10.096;2022-11-25T01:18:44;4.10;38.00
1381;DHT22;684;48.342;10.096;2022-11-25T01:21:13;4.10;38.00
1381;DHT22;684;48.342;10.096;2022-11-25T01:23:40;4.10;38.00
1381;DHT22;684;48.342;10.096;2022-11-25T01:26:10;4.10;37.90
1381;DHT22;684;48.342;10.096;2022-11-25T01:28:37;4.00;37.80
1381;DHT22;684;48.342;10.096;2022-11-25T01:31:07;4.00;37.80
1381;DHT22;684;48.342;10.096;2022-11-25T01:33:35;4.00;37.70
1381;DHT22;684;48.342;10.096;2022-11-25T01:36:02;3.90;37.60
1381;DHT22;684;48.342;10.096;2022-11-25T01:38:30;3.90;37.50
1381;DHT22;684;48.342;10.096;2022-11-25T01:40:57;3.90;37.60
1381;DHT22;684;48.342;10.096;2022-11-25T01:43:24;3.90;37.80
1381;DHT22;684;48.342;10.096;2022-11-25T01:45:52;3.90;37.80
1381;DHT22;684;48.342;10.096;2022-11-25T01:48:23;3.90;37.80
1381;DHT22;684;48.342;10.096;2022-11-25T01:50:52;3.90;38.50
1381;DHT22;684;48.342;10.096;2022-11-25T01:53:20;3.90;37.90
1381;DHT22;684;48.342;10.096;2022-11-25T01:55:50;3.90;38.00
1381;DHT22;684;48.342;10.096;2022-11-25T01:58:21;3.90;38.00
1381;DHT22;684;48.342;10.096;2022-11-25T02:00:50;3.90;38.00
1381;DHT22;684;48.342;10.096;2022-11-25T02:03:19;3.90;38.00
1381;DHT22;684;48.342;10.096;2022-11-25T02:05:51;3.90;38.00
1381;DHT22;684;48.342;10.096;2022-11-25T02:08:22;3.80;38.60
1381;DHT22;684;48.342;10.096;2022-11-25T02:10:50;3.80;38.00
1381;DHT22;684;48.342;10.096;2022-11-25T02:13:18;3.80;38.00
1381;DHT22;684;48.342;10.096;2022-11-25T02:15:46;3.80;38.10
1381;DHT22;684;48.342;10.096;2022-11-25T02:18:13;3.80;38.00
1381;DHT22;684;48.342;10.096;2022-11-25T02:20:39;3.80;38.10
1381;DHT22;684;48.342;10.096;2022-11-25T02:23:12;3.80;38.20
1381;DHT22;684;48.342;10.096;2022-11-25T02:25:42;3.70;38.30
1381;DHT22;684;48.342;10.096;2022-11-25T02:28:13;3.80;38.40
1381;DHT22;684;48.342;10.096;2022-11-25T02:30:40;3.70;39.00
1381;DHT22;684;48.342;10.096;2022-11-25T02:33:07;3.70;38.40
1381;DHT22;684;48.342;10.096;2022-11-25T02:35:36;3.70;38.50
1381;DHT22;684;48.342;10.096;2022-11-25T02:38:07;3.70;38.50
1381;DHT22;684;48.342;10.096;2022-11-25T02:40:39;3.70;38.50
1381;DHT22;684;48.342;10.096;2022-11-25T02:43:08;3.70;38.50
1381;DHT22;684;48.342;10.096;2022-11-25T02:45:50;3.70;38.50
1381;DHT22;684;48.342;10.096;2022-11-25T02:48:18;3.70;38.60
1381;DHT22;684;48.342;10.096;2022-11-25T02:50:45;3.60;38.50
1381;DHT22;684;48.342;10.096;2022-11-25T02:53:12;3.70;38.50
1381;DHT22;684;48.342;10.096;2022-11-25T02:55:39;3.70;38.40
1381;DHT22;684;48.342;10.096;2022-11-25T02:58:05;3.60;38.30
1381;DHT22;684;48.342;10.096;2022-11-25T03:00:34;3.70;38.40
1381;DHT22;684;48.342;10.096;2022-11-25T03:03:01;3.60;38.20
1381;DHT22;684;48.342;10.096;2022-11-25T03:05:28;3.60;38.20
1381;DHT22;684;48.342;10.096;2022-11-25T03:07:55;3.60;38.20
1381;DHT22;684;48.342;10.096;2022-11-25T03:10:22;3.60;38.20
1381;DHT22;684;48.342;10.096;2022-11-25T03:12:49;3.50;38.10
1381;DHT22;684;48.342;10.096;2022-11-25T03:15:16;3.50;38.10
1381;DHT22;684;48.342;10.096;2022-11-25T03:17:44;3.40;38.00
1381;DHT22;684;48.342;10.096;2022-11-25T03:20:12;3.40;37.90
1381;DHT22;684;48.342;10.096;2022-11-25T03:22:39;3.30;38.00
1381;DHT22;684;48.342;10.096;2022-11-25T03:25:07;3.30;37.90
1381;DHT22;684;48.342;10.096;2022-11-25T03:27:34;3.30;38.00
1381;DHT22;684;48.342;10.096;2022-11-25T03:30:03;3.20;38.00
1381;DHT22;684;48.342;10.096;2022-11-25T03:32:30;3.20;38.20
1381;DHT22;684;48.342;10.096;2022-11-25T03:34:58;3.20;38.10
1381;DHT22;684;48.342;10.096;2022-11-25T03:37:25;3.20;38.10
1381;DHT22;684;48.342;10.096;2022-11-25T03:39:53;3.20;38.20
1381;DHT22;684;48.342;10.096;2022-11-25T03:42:19;3.10;38.20
1381;DHT22;684;48.342;10.096;2022-11-25T03:44:46;3.20;38.30
1381;DHT22;684;48.342;10.096;2022-11-25T03:47:14;3.20;38.30
1381;DHT22;684;48.342;10.096;2022-11-25T03:49:40;3.10;38.20
1381;DHT22;684;48.342;10.096;2022-11-25T03:52:09;3.10;38.20
1381;DHT22;684;48.342;10.096;2022-11-25T03:54:36;3.10;38.00
1381;DHT22;684;48.342;10.096;2022-11-25T03:57:03;3.10;37.80
1381;DHT22;684;48.342;10.096;2022-11-25T03:59:29;3.10;37.60
1381;DHT22;684;48.342;10.096;2022-11-25T04:01:56;3.10;37.00
1381;DHT22;684;48.342;10.096;2022-11-25T04:04:23;3.20;37.10
1381;DHT22;684;48.342;10.096;2022-11-25T04:06:50;3.10;36.90
1381;DHT22;684;48.342;10.096;2022-11-25T04:09:18;3.10;36.60
1381;DHT22;684;48.342;10.096;2022-11-25T04:11:46;3.10;36.30
1381;DHT22;684;48.342;10.096;2022-11-25T04:14:30;3.00;36.30
1381;DHT22;684;48.342;10.096;2022-11-25T04:16:57;3.00;36.50
1381;DHT22;684;48.342;10.096;2022-11-25T04:19:24;3.00;36.60
1381;DHT22;684;48.342;10.096;2022-11-25T04:21:51;2.90;36.70
1381;DHT22;684;48.342;10.096;2022-11-25T04:24:19;2.90;36.20
1381;DHT22;684;48.342;10.096;2022-11-25T04:26:46;2.90;36.30
1381;DHT22;684;48.342;10.096;2022-11-25T04:29:13;2.90;36.40
1381;DHT22;684;48.342;10.096;2022-11-25T04:31:40;2.80;36.50
1381;DHT22;684;48.342;10.096;2022-11-25T04:34:07;2.80;36.60
1381;DHT22;684;48.342;10.096;2022-11-25T04:36:33;2.80;36.70
1381;DHT22;684;48.342;10.096;2022-11-25T04:39:00;2.70;36.90
1381;DHT22;684;48.342;10.096;2022-11-25T04:41:28;2.70;36.90
1381;DHT22;684;48.342;10.096;2022-11-25T04:43:58;2.70;36.90
1381;DHT22;684;48.342;10.096;2022-11-25T04:46:28;2.70;37.00
1381;DHT22;684;48.342;10.096;2022-11-25T04:48:55;2.70;37.00
1381;DHT22;684;48.342;10.096;2022-11-25T04:51:22;2.70;37.10
1381;DHT22;684;48.342;10.096;2022-11-25T04:53:49;2.70;37.10
1381;DHT22;684;48.342;10.096;2022-11-25T04:56:20;2.70;37.10
1381;DHT22;684;48.342;10.096;2022-11-25T04:58:48;2.70;37.30
1381;DHT22;684;48.342;10.096;2022-11-25T05:01:33;2.70;37.50
1381;DHT22;684;48.342;10.096;2022-11-25T05:04:00;2.70;37.70
1381;DHT22;684;48.342;10.096;2022-11-25T05:06:27;2.70;37.80
1381;DHT22;684;48.342;10.096;2022-11-25T05:08:53;2.80;37.90
1381;DHT22;684;48.342;10.096;2022-11-25T05:11:20;2.80;38.00
1381;DHT22;684;48.342;10.096;2022-11-25T05:13:48;2.80;38.10
1381;DHT22;684;48.342;10.096;2022-11-25T05:16:15;2.80;38.10
1381;DHT22;684;48.342;10.096;2022-11-25T05:18:42;2.80;38.10
1381;DHT22;684;48.342;10.096;2022-11-25T05:21:08;2.80;38.10
1381;DHT22;684;48.342;10.096;2022-11-25T05:23:35;2.80;38.10
1381;DHT22;684;48.342;10.096;2022-11-25T05:26:03;2.80;38.20
1381;DHT22;684;48.342;10.096;2022-11-25T05:28:30;2.90;38.20
1381;DHT22;684;48.342;10.096;2022-11-25T05:30:58;2.90;38.10
1381;DHT22;684;48.342;10.096;2022-11-25T05:33:25;2.90;38.10
1381;DHT22;684;48.342;10.096;2022-11-25T05:35:56;3.00;37.90
1381;DHT22;684;48.342;10.096;2022-11-25T05:38:23;2.90;37.90
1381;DHT22;684;48.342;10.096;2022-11-25T05:40:51;2.90;37.90
1381;DHT22;684;48.342;10.096;2022-11-25T05:43:18;2.90;37.80
1381;DHT22;684;48.342;10.096;2022-11-25T05:45:45;2.90;37.70
1381;DHT22;684;48.342;10.096;2022-11-25T05:48:13;3.00;37.70
1381;DHT22;684;48.342;10.096;2022-11-25T05:50:40;3.00;37.80
1381;DHT22;684;48.342;10.096;2022-11-25T05:53:07;3.00;37.80
1381;DHT22;684;48.342;10.096;2022-11-25T05:55:34;3.00;37.80
1381;DHT22;684;48.342;10.096;2022-11-25T05:58:00;3.00;37.90
1381;DHT22;684;48.342;10.096;2022-11-25T06:00:29;3.00;37.90
1381;DHT22;684;48.342;10.096;2022-11-25T06:02:56;3.10;37.90
1381;DHT22;684;48.342;10.096;2022-11-25T06:05:24;3.10;37.90
1381;DHT22;684;48.342;10.096;2022-11-25T06:07:51;3.10;38.00
1381;DHT22;684;48.342;10.096;2022-11-25T06:10:18;3.20;37.90
1381;DHT22;684;48.342;10.096;2022-11-25T06:12:45;3.20;37.90
1381;DHT22;684;48.342;10.096;2022-11-25T06:15:12;3.20;37.90
1381;DHT22;684;48.342;10.096;2022-11-25T06:17:39;3.20;37.90
1381;DHT22;684;48.342;10.096;2022-11-25T06:20:07;3.20;37.90
1381;DHT22;684;48.342;10.096;2022-11-25T06:22:35;3.20;37.90
1381;DHT22;684;48.342;10.096;2022-11-25T06:25:02;3.30;37.90
1381;DHT22;684;48.342;10.096;2022-11-25T06:27:29;3.20;37.80
1381;DHT22;684;48.342;10.096;2022-11-25T06:29:56;3.20;37.80
1381;DHT22;684;48.342;10.096;2022-11-25T06:32:23;3.20;37.80
1381;DHT22;684;48.342;10.096;2022-11-25T06:34:49;3.30;37.90
1381;DHT22;684;48.342;10.096;2022-11-25T06:37:16;3.30;37.90
1381;DHT22;684;48.342;10.096;2022-11-25T06:39:44;3.30;37.80
1381;DHT22;684;48.342;10.096;2022-11-25T06:42:12;3.30;37.80
1381;DHT22;684;48.342;10.096;2022-11-25T06:44:38;3.30;37.80
1381;DHT22;684;48.342;10.096;2022-11-25T06:47:05;3.30;37.80
1381;DHT22;684;48.342;10.096;2022-11-25T06:49:32;3.30;37.80
1381;DHT22;684;48.342;10.096;2022-11-25T06:51:59;3.30;37.80
1381;DHT22;684;48.342;10.096;2022-11-25T06:54:26;3.30;37.80
1381;DHT22;684;48.342;10.096;2022-11-25T06:56:54;3.40;37.70
1381;DHT22;684;48.342;10.096;2022-11-25T06:59:21;3.40;37.70
1381;DHT22;684;48.342;10.096;2022-11-25T07:01:47;3.30;37.80
1381;DHT22;684;48.342;10.096;2022-11-25T07:04:14;3.40;38.40
1381;DHT22;684;48.342;10.096;2022-11-25T07:06:41;3.40;37.80
1381;DHT22;684;48.342;10.096;2022-11-25T07:09:08;3.40;37.90
1381;DHT22;684;48.342;10.096;2022-11-25T07:11:36;3.40;37.90
1381;DHT22;684;48.342;10.096;2022-11-25T07:14:09;3.50;38.00
1381;DHT22;684;48.342;10.096;2022-11-25T07:16:37;3.50;38.00
1381;DHT22;684;48.342;10.096;2022-11-25T07:19:04;3.60;38.10
1381;DHT22;684;48.342;10.096;2022-11-25T07:21:32;3.70;38.10
1381;DHT22;684;48.342;10.096;2022-11-25T07:24:01;3.70;38.10
1381;DHT22;684;48.342;10.096;2022-11-25T07:26:30;3.70;38.00
1381;DHT22;684;48.342;10.096;2022-11-25T07:28:59;3.80;38.00
1381;DHT22;684;48.342;10.096;2022-11-25T07:31:30;3.80;37.90
1381;DHT22;684;48.342;10.096;2022-11-25T07:33:59;3.90;37.90
1381;DHT22;684;48.342;10.096;2022-11-25T07:36:26;3.90;37.90
1381;DHT22;684;48.342;10.096;2022-11-25T07:38:54;4.00;38.00
1381;DHT22;684;48.342;10.096;2022-11-25T07:41:23;4.00;37.90
1381;DHT22;684;48.342;10.096;2022-11-25T07:43:51;4.00;37.80
1381;DHT22;684;48.342;10.096;2022-11-25T07:46:20;4.10;37.70
1381;DHT22;684;48.342;10.096;2022-11-25T07:48:49;4.10;37.50
1381;DHT22;684;48.342;10.096;2022-11-25T07:51:17;4.20;37.50
1381;DHT22;684;48.342;10.096;2022-11-25T07:53:44;4.20;37.50
1381;DHT22;684;48.342;10.096;2022-11-25T07:56:11;4.20;37.60
1381;DHT22;684;48.342;10.096;2022-11-25T07:58:38;4.30;37.50
1381;DHT22;684;48.342;10.096;2022-11-25T08:01:07;4.30;37.60
1381;DHT22;684;48.342;10.096;2022-11-25T08:03:35;4.40;37.30
1381;DHT22;684;48.342;10.096;2022-11-25T08:06:05;4.40;37.30
1381;DHT22;684;48.342;10.096;2022-11-25T08:08:32;4.50;37.30
1381;DHT22;684;48.342;10.096;2022-11-25T08:10:59;4.60;37.20
1381;DHT22;684;48.342;10.096;2022-11-25T08:13:26;4.60;37.10
1381;DHT22;684;48.342;10.096;2022-11-25T08:15:53;4.70;37.30
1381;DHT22;684;48.342;10.096;2022-11-25T08:18:20;4.80;37.10
1381;DHT22;684;48.342;10.096;2022-11-25T08:20:47;4.90;37.10
1381;DHT22;684;48.342;10.096;2022-11-25T08:23:15;5.00;36.80
1381;DHT22;684;48.342;10.096;2022-11-25T08:25:42;5.10;36.60
1381;DHT22;684;48.342;10.096;2022-11-25T08:28:09;5.30;36.30
1381;DHT22;684;48.342;10.096;2022-11-25T08:30:35;5.40;35.90
1381;DHT22;684;48.342;10.096;2022-11-25T08:33:02;5.60;35.80
1381;DHT22;684;48.342;10.096;2022-11-25T08:35:32;5.90;36.10
1381;DHT22;684;48.342;10.096;2022-11-25T08:38:02;6.40;39.40
1381;DHT22;684;48.342;10.096;2022-11-25T08:40:31;7.00;37.20
1381;DHT22;684;48.342;10.096;2022-11-25T08:42:58;7.70;36.90
1381;DHT22;684;48.342;10.096;2022-11-25T08:45:25;8.50;33.90
1381;DHT22;684;48.342;10.096;2022-11-25T08:47:51;9.30;30.80
1381;DHT22;684;48.342;10.096;2022-11-25T08:50:19;10.30;27.30
1381;DHT22;684;48.342;10.096;2022-11-25T08:52:46;11.30;23.60
1381;DHT22;684;48.342;10.096;2022-11-25T08:55:12;12.20;20.60
1381;DHT22;684;48.342;10.096;2022-11-25T08:57:41;12.60;18.30
1381;DHT22;684;48.342;10.096;2022-11-25T09:00:09;12.80;18.20
1381;DHT22;684;48.342;10.096;2022-11-25T09:02:36;12.90;17.90
1381;DHT22;684;48.342;10.096;2022-11-25T09:05:03;12.90;17.50
1381;DHT22;684;48.342;10.096;2022-11-25T09:07:29;12.60;17.10
1381;DHT22;684;48.342;10.096;2022-11-25T09:09:56;12.30;17.20
1381;DHT22;684;48.342;10.096;2022-11-25T09:12:23;12.00;18.30
1381;DHT22;684;48.342;10.096;2022-11-25T09:14:51;11.70;18.20
1381;DHT22;684;48.342;10.096;2022-11-25T09:17:18;11.60;18.30
1381;DHT22;684;48.342;10.096;2022-11-25T09:19:45;11.40;18.50
1381;DHT22;684;48.342;10.096;2022-11-25T09:22:12;11.30;18.40
1381;DHT22;684;48.342;10.096;2022-11-25T09:24:39;11.10;18.80
1381;DHT22;684;48.342;10.096;2022-11-25T09:27:08;11.20;19.20
1381;DHT22;684;48.342;10.096;2022-11-25T09:29:34;11.20;19.30
1381;DHT22;684;48.342;10.096;2022-11-25T09:32:03;11.10;19.10
1381;DHT22;684;48.342;10.096;2022-11-25T09:34:30;10.90;19.50
1381;DHT22;684;48.342;10.096;2022-11-25T09:36:57;10.70;19.90
1381;DHT22;684;48.342;10.096;2022-11-25T09:39:23;10.60;20.30
1381;DHT22;684;48.342;10.096;2022-11-25T09:42:02;10.40;20.70
1381;DHT22;684;48.342;10.096;2022-11-25T09:45:01;10.30;21.20
1381;DHT22;684;48.342;10.096;2022-11-25T09:48:01;10.20;21.60
1381;DHT22;684;48.342;10.096;2022-11-25T09:50:38;10.20;21.80
1381;DHT22;684;48.342;10.096;2022-11-25T09:53:15;10.20;22.30
1381;DHT22;684;48.342;10.096;2022-11-25T09:55:49;10.10;22.70
1381;DHT22;684;48.342;10.096;2022-11-25T09:58:25;10.10;22.80
1381;DHT22;684;48.342;10.096;2022-11-25T10:00:56;10.10;23.60
1381;DHT22;684;48.342;10.096;2022-11-25T10:03:31;10.10;23.10
1381;DHT22;684;48.342;10.096;2022-11-25T10:06:03;10.10;23.20
1381;DHT22;684;48.342;10.096;2022-11-25T10:08:35;10.10;23.30
1381;DHT22;684;48.342;10.096;2022-11-25T10:11:14;10.20;23.30
1381;DHT22;684;48.342;10.096;2022-11-25T10:13:47;10.10;23.20
1381;DHT22;684;48.342;10.096;2022-11-25T10:16:28;10.10;23.40
1381;DHT22;684;48.342;10.096;2022-11-25T10:19:00;10.10;23.60
1381;DHT22;684;48.342;10.096;2022-11-25T10:21:31;10.00;23.80
1381;DHT22;684;48.342;10.096;2022-11-25T10:23:57;10.00;24.00
1381;DHT22;684;48.342;10.096;2022-11-25T10:26:28;10.00;24.40
1381;DHT22;684;48.342;10.096;2022-11-25T10:29:15;9.90;24.50
1381;DHT22;684;48.342;10.096;2022-11-25T10:31:45;9.90;24.60
1381;DHT22;684;48.342;10.096;2022-11-25T10:34:19;9.90;25.00
1381;DHT22;684;48.342;10.096;2022-11-25T10:36:50;9.80;25.10
1381;DHT22;684;48.342;10.096;2022-11-25T10:39:20;9.80;25.20
1381;DHT22;684;48.342;10.096;2022-11-25T10:41:54;9.80;25.10
1381;DHT22;684;48.342;10.096;2022-11-25T10:44:24;9.90;25.50
1381;DHT22;684;48.342;10.096;2022-11-25T10:47:07;9.90;25.00
1381;DHT22;684;48.342;10.096;2022-11-25T10:49:46;10.00;25.30
1381;DHT22;684;48.342;10.096;2022-11-25T10:52:20;10.10;25.50
1381;DHT22;684;48.342;10.096;2022-11-25T10:54:55;10.20;25.00
1381;DHT22;684;48.342;10.096;2022-11-25T10:57:27;10.30;24.60
1381;DHT22;684;48.342;10.096;2022-11-25T10:59:56;10.40;24.50
1381;DHT22;684;48.342;10.096;2022-11-25T11:02:24;10.50;24.30
1381;DHT22;684;48.342;10.096;2022-11-25T11:04:59;10.50;24.90
1381;DHT22;684;48.342;10.096;2022-11-25T11:07:29;10.50;24.80
1381;DHT22;684;48.342;10.096;2022-11-25T11:10:14;10.40;24.50
1381;DHT22;684;48.342;10.096;2022-11-25T11:12:53;10.30;25.10
1381;DHT22;684;48.342;10.096;2022-11-25T11:15:22;10.30;25.30
1381;DHT22;684;48.342;10.096;2022-11-25T11:17:49;10.20;25.70
1381;DHT22;684;48.342;10.096;2022-11-25T11:20:21;10.20;25.70
1381;DHT22;684;48.342;10.096;2022-11-25T11:22:54;10.10;25.50
1381;DHT22;684;48.342;10.096;2022-11-25T11:25:26;10.10;25.60
1381;DHT22;684;48.342;10.096;2022-11-25T11:27:53;10.10;25.90
1381;DHT22;684;48.342;10.096;2022-11-25T11:30:22;10.10;26.20
1381;DHT22;684;48.342;10.096;2022-11-25T11:32:57;10.10;26.40
1381;DHT22;684;48.342;10.096;2022-11-25T11:35:41;10.10;26.40
1381;DHT22;684;48.342;10.096;2022-11-25T11:38:25;10.10;26.50
1381;DHT22;684;48.342;10.096;2022-11-25T11:40:59;10.10;26.80
1381;DHT22;684;48.342;10.096;2022-11-25T11:43:41;10.00;26.90
1381;DHT22;684;48.342;10.096;2022-11-25T11:46:20;10.00;27.00
1381;DHT22;684;48.342;10.096;2022-11-25T11:48:57;9.90;27.30
1381;DHT22;684;48.342;10.096;2022-11-25T11:51:36;9.90;27.60
1381;DHT22;684;48.342;10.096;2022-11-25T11:54:09;9.80;27.90
1381;DHT22;684;48.342;10.096;2022-11-25T11:56:39;9.70;28.40
1381;DHT22;684;48.342;10.096;2022-11-25T11:59:23;9.80;29.20
1381;DHT22;684;48.342;10.096;2022-11-25T12:02:07;9.70;29.00
1381;DHT22;684;48.342;10.096;2022-11-25T12:04:40;9.70;29.10
1381;DHT22;684;48.342;10.096;2022-11-25T12:07:17;9.70;29.20
1381;DHT22;684;48.342;10.096;2022-11-25T12:09:50;9.60;29.20
1381;DHT22;684;48.342;10.096;2022-11-25T12:12:23;9.60;29.40
1381;DHT22;684;48.342;10.096;2022-11-25T12:14:59;9.60;29.60
1381;DHT22;684;48.342;10.096;2022-11-25T12:17:30;9.60;29.60
1381;DHT22;684;48.342;10.096;2022-11-25T12:20:04;9.60;29.80
1381;DHT22;684;48.342;10.096;2022-11-25T12:22:35;9.60;30.10
1381;DHT22;684;48.342;10.096;2022-11-25T12:25:10;9.60;30.20
1381;DHT22;684;48.342;10.096;2022-11-25T12:27:43;9.70;30.30
1381;DHT22;684;48.342;10.096;2022-11-25T12:30:14;9.70;30.30
1381;DHT22;684;48.342;10.096;2022-11-25T12:32:52;9.70;30.40
1381;DHT22;684;48.342;10.096;2022-11-25T12:35:32;9.70;30.60
1381;DHT22;684;48.342;10.096;2022-11-25T12:38:07;9.70;30.70
1381;DHT22;684;48.342;10.096;2022-11-25T12:40:43;9.70;30.80
1381;DHT22;684;48.342;10.096;2022-11-25T12:43:22;9.80;30.90
1381;DHT22;684;48.342;10.096;2022-11-25T12:45:57;9.80;31.70
1381;DHT22;684;48.342;10.096;2022-11-25T12:48:25;9.90;31.20
1381;DHT22;684;48.342;10.096;2022-11-25T12:50:59;9.90;31.20
1381;DHT22;684;48.342;10.096;2022-11-25T12:53:34;10.00;31.30
1381;DHT22;684;48.342;10.096;2022-11-25T12:56:04;10.00;31.40
1381;DHT22;684;48.342;10.096;2022-11-25T12:58:44;10.00;31.40
1381;DHT22;684;48.342;10.096;2022-11-25T13:01:31;10.00;31.70
1381;DHT22;684;48.342;10.096;2022-11-25T13:04:28;10.10;31.70
1381;DHT22;684;48.342;10.096;2022-11-25T13:07:15;10.10;32.00
1381;DHT22;684;48.342;10.096;2022-11-25T13:13:01;10.00;32.10
1381;DHT22;684;48.342;10.096;2022-11-25T13:15:41;10.00;32.20
1381;DHT22;684;48.342;10.096;2022-11-25T13:18:11;10.00;32.30
1381;DHT22;684;48.342;10.096;2022-11-25T13:20:44;10.10;32.30
1381;DHT22;684;48.342;10.096;2022-11-25T13:23:25;10.00;32.50
1381;DHT22;684;48.342;10.096;2022-11-25T13:28:59;10.00;32.80
1381;DHT22;684;48.342;10.096;2022-11-25T13:31:30;10.00;32.50
1381;DHT22;684;48.342;10.096;2022-11-25T13:34:26;10.00;32.50
1381;DHT22;684;48.342;10.096;2022-11-25T13:36:55;9.90;32.70
1381;DHT22;684;48.342;10.096;2022-11-25T13:39:30;9.90;32.70
1381;DHT22;684;48.342;10.096;2022-11-25T13:42:03;9.90;32.80
1381;DHT22;684;48.342;10.096;2022-11-25T13:44:32;9.90;32.90
1381;DHT22;684;48.342;10.096;2022-11-25T13:47:22;9.90;32.90
1381;DHT22;684;48.342;10.096;2022-11-25T13:49:53;9.90;33.00
1381;DHT22;684;48.342;10.096;2022-11-25T13:52:34;9.90;33.00
1381;DHT22;684;48.342;10.096;2022-11-25T13:55:09;9.90;33.20
1381;DHT22;684;48.342;10.096;2022-11-25T13:57:58;9.90;33.20
1381;DHT22;684;48.342;10.096;2022-11-25T14:03:54;9.90;33.70
1381;DHT22;684;48.342;10.096;2022-11-25T14:06:40;9.90;33.90
1381;DHT22;684;48.342;10.096;2022-11-25T14:09:21;10.00;34.10
1381;DHT22;684;48.342;10.096;2022-11-25T14:12:01;10.00;34.20
1381;DHT22;684;48.342;10.096;2022-11-25T14:14:44;10.00;34.20
1381;DHT22;684;48.342;10.096;2022-11-25T14:17:29;10.00;34.10
1381;DHT22;684;48.342;10.096;2022-11-25T14:20:29;10.00;34.30
1381;DHT22;684;48.342;10.096;2022-11-25T14:23:40;10.00;34.50
1381;DHT22;684;48.342;10.096;2022-11-25T14:26:12;9.90;35.00
1381;DHT22;684;48.342;10.096;2022-11-25T14:28:44;9.90;35.30
1381;DHT22;684;48.342;10.096;2022-11-25T14:31:16;9.80;35.30
1381;DHT22;684;48.342;10.096;2022-11-25T14:33:49;9.80;35.10
1381;DHT22;684;48.342;10.096;2022-11-25T14:36:22;9.80;35.20
1381;DHT22;684;48.342;10.096;2022-11-25T14:38:54;9.70;35.20
1381;DHT22;684;48.342;10.096;2022-11-25T14:41:27;9.70;35.30
1381;DHT22;684;48.342;10.096;2022-11-25T14:43:59;9.70;35.40
1381;DHT22;684;48.342;10.096;2022-11-25T14:46:28;9.70;35.50
1381;DHT22;684;48.342;10.096;2022-11-25T14:48:57;9.60;35.60
1381;DHT22;684;48.342;10.096;2022-11-25T14:51:26;9.60;35.60
1381;DHT22;684;48.342;10.096;2022-11-25T14:53:53;9.60;35.60
1381;DHT22;684;48.342;10.096;2022-11-25T14:56:25;9.60;35.60
1381;DHT22;684;48.342;10.096;2022-11-25T14:58:54;9.60;35.70
1381;DHT22;684;48.342;10.096;2022-11-25T15:01:23;9.50;35.70
1381;DHT22;684;48.342;10.096;2022-11-25T15:04:02;9.50;35.80
1381;DHT22;684;48.342;10.096;2022-11-25T15:06:33;9.50;36.00
1381;DHT22;684;48.342;10.096;2022-11-25T15:09:02;9.50;36.00
1381;DHT22;684;48.342;10.096;2022-11-25T15:11:31;9.50;36.00
1381;DHT22;684;48.342;10.096;2022-11-25T15:14:00;9.50;36.00
1381;DHT22;684;48.342;10.096;2022-11-25T15:16:33;9.60;36.10
1381;DHT22;684;48.342;10.096;2022-11-25T15:19:03;9.50;36.10
1381;DHT22;684;48.342;10.096;2022-11-25T15:21:32;9.50;36.20
1381;DHT22;684;48.342;10.096;2022-11-25T15:24:00;9.50;36.30
1381;DHT22;684;48.342;10.096;2022-11-25T15:26:29;9.50;36.60
1381;DHT22;684;48.342;10.096;2022-11-25T15:28:58;9.50;36.50
1381;DHT22;684;48.342;10.096;2022-11-25T15:31:27;9.50;36.50
1381;DHT22;684;48.342;10.096;2022-11-25T15:33:57;9.50;36.70
1381;DHT22;684;48.342;10.096;2022-11-25T15:36:27;9.40;36.70
1381;DHT22;684;48.342;10.096;2022-11-25T15:38:54;9.50;37.00
1381;DHT22;684;48.342;10.096;2022-11-25T15:41:38;9.50;37.70
1381;DHT22;684;48.342;10.096;2022-11-25T15:44:14;9.50;37.40
1381;DHT22;684;48.342;10.096;2022-11-25T15:46:50;9.50;37.90
1381;DHT22;684;48.342;10.096;2022-11-25T15:49:17;9.50;38.30
1381;DHT22;684;48.342;10.096;2022-11-25T15:51:51;9.50;38.20
1381;DHT22;684;48.342;10.096;2022-11-25T15:54:20;9.50;38.20
1381;DHT22;684;48.342;10.096;2022-11-25T15:56:49;9.40;38.20
1381;DHT22;684;48.342;10.096;2022-11-25T15:59:39;9.40;38.40
1381;DHT22;684;48.342;10.096;2022-11-25T16:02:26;9.40;38.60
1381;DHT22;684;48.342;10.096;2022-11-25T16:05:21;9.40;38.70
1381;DHT22;684;48.342;10.096;2022-11-25T16:08:22;9.40;38.80
1381;DHT22;684;48.342;10.096;2022-11-25T16:10:53;9.50;39.20
1381;DHT22;684;48.342;10.096;2022-11-25T16:13:33;9.40;39.20
1381;DHT22;684;48.342;10.096;2022-11-25T16:16:16;9.40;39.20
1381;DHT22;684;48.342;10.096;2022-11-25T16:18:53;9.40;39.50
1381;DHT22;684;48.342;10.096;2022-11-25T16:21:22;9.30;39.70
1381;DHT22;684;48.342;10.096;2022-11-25T16:23:53;9.40;39.50
1381;DHT22;684;48.342;10.096;2022-11-25T16:26:24;9.30;39.60
1381;DHT22;684;48.342;10.096;2022-11-25T16:28:54;9.30;39.50
1381;DHT22;684;48.342;10.096;2022-11-25T16:31:21;9.30;39.50
1381;DHT22;684;48.342;10.096;2022-11-25T16:33:49;9.20;39.50
1381;DHT22;684;48.342;10.096;2022-11-25T16:36:15;9.20;39.40
1381;DHT22;684;48.342;10.096;2022-11-25T16:38:42;9.10;39.20
1381;DHT22;684;48.342;10.096;2022-11-25T16:41:18;9.10;38.40
1381;DHT22;684;48.342;10.096;2022-11-25T16:43:45;9.00;38.00
1381;DHT22;684;48.342;10.096;2022-11-25T16:46:14;9.00;37.10
1381;DHT22;684;48.342;10.096;2022-11-25T16:48:42;9.00;36.30